sensor_id;sensor_type;location;lat;lon;timestamp;pressure;altitude;pressure_sealevel;temperature;humidity
38400;BME280;24180;42.676;23.320;2023-06-10T00:00:37;94351.03;;;18.31;100.00
38400;BME280;24180;42.676;23.320;2023-06-10T00:03:03;94377.25;;;18.44;100.00
38400;BME280;24180;42.676;23.320;2023-06-10T00:05:28;94354.25;;;18.20;100.00
38400;BME280;24180;42.676;23.320;2023-06-10T00:07:55;94381.25;;;18.27;100.00
38400;BME280;24180;42.676;23.320;2023-06-10T00:10:21;94346.72;;;17.91;100.00
38400;BME280;24180;42.676;23.320;2023-06-10T00:12:47;94382.16;;;17.87;100.00
38400;BME280;24180;42.676;23.320;2023-06-10T00:15:13;94340.19;;;17.67;100.00
38400;BME280;24180;42.676;23.320;2023-06-10T00:17:38;94365.22;;;17.76;100.00
38400;BME280;24180;42.676;23.320;2023-06-10T00:20:06;94363.38;;;17.70;100.00
38400;BME280;24180;42.676;23.320;2023-06-10T00:22:36;94357.31;;;17.63;100.00
38400;BME280;24180;42.676;23.320;2023-06-10T00:25:03;94352.59;;;17.52;100.00
38400;BME280;24180;42.676;23.320;2023-06-10T00:27:29;94365.81;;;17.71;100.00
38400;BME280;24180;42.676;23.320;2023-06-10T00:30:03;94348.78;;;17.54;100.00
38400;BME280;24180;42.676;23.320;2023-06-10T00:32:31;94342.72;;;17.54;100.00
38400;BME280;24180;42.676;23.320;2023-06-10T00:34:56;94366.41;;;17.73;100.00
38400;BME280;24180;42.676;23.320;2023-06-10T00:37:22;94370.47;;;17.76;100.00
38400;BME280;24180;42.676;23.320;2023-06-10T00:39:47;94361.56;;;17.64;100.00
38400;BME280;24180;42.676;23.320;2023-06-10T00:42:13;94365.78;;;17.65;100.00
38400;BME280;24180;42.676;23.320;2023-06-10T00:44:38;94342.53;;;17.49;100.00
38400;BME280;24180;42.676;23.320;2023-06-10T00:47:04;94349.03;;;17.59;100.00
38400;BME280;24180;42.676;23.320;2023-06-10T00:49:30;94363.59;;;17.75;100.00
38400;BME280;24180;42.676;23.320;2023-06-10T00:51:55;94368.06;;;17.81;100.00
38400;BME280;24180;42.676;23.320;2023-06-10T00:54:21;94363.00;;;17.80;100.00
38400;BME280;24180;42.676;23.320;2023-06-10T00:56:47;94361.19;;;17.80;100.00
38400;BME280;24180;42.676;23.320;2023-06-10T00:59:13;94360.41;;;17.80;100.00
38400;BME280;24180;42.676;23.320;2023-06-10T01:01:40;94341.78;;;17.61;100.00
38400;BME280;24180;42.676;23.320;2023-06-10T01:04:06;94348.91;;;17.81;100.00
38400;BME280;24180;42.676;23.320;2023-06-10T01:12:14;94341.25;;;17.72;100.00
38400;BME280;24180;42.676;23.320;2023-06-10T01:14:42;94379.00;;;18.04;100.00
38400;BME280;24180;42.676;23.320;2023-06-10T01:17:10;94349.91;;;17.80;100.00
38400;BME280;24180;42.676;23.320;2023-06-10T01:19:36;94354.94;;;17.74;100.00
38400;BME280;24180;42.676;23.320;2023-06-10T01:22:03;94328.09;;;17.66;100.00
38400;BME280;24180;42.676;23.320;2023-06-10T01:24:29;94332.16;;;17.68;100.00
38400;BME280;24180;42.676;23.320;2023-06-10T01:27:00;94378.53;;;17.88;100.00
38400;BME280;24180;42.676;23.320;2023-06-10T01:30:00;94378.16;;;17.91;100.00
38400;BME280;24180;42.676;23.320;2023-06-10T01:32:32;94375.13;;;17.94;100.00
38400;BME280;24180;42.676;23.320;2023-06-10T01:34:59;94376.97;;;18.06;100.00
38400;BME280;24180;42.676;23.320;2023-06-10T01:37:26;94352.53;;;17.86;100.00
38400;BME280;24180;42.676;23.320;2023-06-10T01:39:55;94351.16;;;17.90;100.00
38400;BME280;24180;42.676;23.320;2023-06-10T01:42:21;94375.56;;;18.04;100.00
38400;BME280;24180;42.676;23.320;2023-06-10T01:44:47;94344.09;;;17.84;100.00
38400;BME280;24180;42.676;23.320;2023-06-10T01:47:12;94348.34;;;17.85;100.00
38400;BME280;24180;42.676;23.320;2023-06-10T01:49:38;94368.31;;;17.99;100.00
38400;BME280;24180;42.676;23.320;2023-06-10T01:52:03;94340.03;;;17.82;100.00
38400;BME280;24180;42.676;23.320;2023-06-10T01:54:29;94368.13;;;18.01;100.00
38400;BME280;24180;42.676;23.320;2023-06-10T01:56:54;94336.66;;;17.94;100.00
38400;BME280;24180;42.676;23.320;2023-06-10T01:59:20;94359.66;;;18.12;100.00
38400;BME280;24180;42.676;23.320;2023-06-10T02:01:45;94345.38;;;18.21;100.00
38400;BME280;24180;42.676;23.320;2023-06-10T02:04:10;94338.72;;;18.12;100.00
38400;BME280;24180;42.676;23.320;2023-06-10T02:06:36;94320.56;;;17.97;100.00
38400;BME280;24180;42.676;23.320;2023-06-10T02:09:03;94314.09;;;17.93;100.00
38400;BME280;24180;42.676;23.320;2023-06-10T02:11:28;94345.56;;;18.13;100.00
38400;BME280;24180;42.676;23.320;2023-06-10T02:13:54;94337.91;;;18.18;100.00
38400;BME280;24180;42.676;23.320;2023-06-10T02:16:20;94317.13;;;17.97;100.00
38400;BME280;24180;42.676;23.320;2023-06-10T02:18:46;94346.97;;;18.22;100.00
38400;BME280;24180;42.676;23.320;2023-06-10T02:21:12;94318.53;;;18.06;100.00
38400;BME280;24180;42.676;23.320;2023-06-10T02:23:37;94315.72;;;18.01;100.00
38400;BME280;24180;42.676;23.320;2023-06-10T02:26:03;94346.97;;;18.22;100.00
38400;BME280;24180;42.676;23.320;2023-06-10T02:28:28;94336.09;;;18.12;100.00
38400;BME280;24180;42.676;23.320;2023-06-10T02:30:54;94321.56;;;18.22;100.00
38400;BME280;24180;42.676;23.320;2023-06-10T02:33:19;94302.03;;;18.12;100.00
38400;BME280;24180;42.676;23.320;2023-06-10T02:35:45;94327.63;;;18.30;100.00
38400;BME280;24180;42.676;23.320;2023-06-10T02:38:10;94334.09;;;18.40;100.00
38400;BME280;24180;42.676;23.320;2023-06-10T02:40:36;94336.50;;;18.42;100.00
38400;BME280;24180;42.676;23.320;2023-06-10T02:43:01;94333.06;;;18.35;100.00
38400;BME280;24180;42.676;23.320;2023-06-10T02:45:27;94304.84;;;18.17;100.00
38400;BME280;24180;42.676;23.320;2023-06-10T02:47:52;94322.19;;;18.31;100.00
38400;BME280;24180;42.676;23.320;2023-06-10T02:50:17;94317.56;;;18.33;100.00
38400;BME280;24180;42.676;23.320;2023-06-10T02:52:43;94319.97;;;18.35;100.00
38400;BME280;24180;42.676;23.320;2023-06-10T02:55:09;94319.56;;;18.38;100.00
38400;BME280;24180;42.676;23.320;2023-06-10T02:57:34;94294.97;;;18.25;100.00
38400;BME280;24180;42.676;23.320;2023-06-10T03:00:00;94296.38;;;18.28;100.00
38400;BME280;24180;42.676;23.320;2023-06-10T03:02:27;94296.78;;;18.25;100.00
38400;BME280;24180;42.676;23.320;2023-06-10T03:04:57;94295.56;;;18.34;100.00
38400;BME280;24180;42.676;23.320;2023-06-10T03:07:23;94313.13;;;18.47;100.00
38400;BME280;24180;42.676;23.320;2023-06-10T03:09:49;94314.53;;;18.49;100.00
38400;BME280;24180;42.676;23.320;2023-06-10T03:12:15;94298.41;;;18.33;100.00
38400;BME280;24180;42.676;23.320;2023-06-10T03:14:41;94291.94;;;18.35;100.00
38400;BME280;24180;42.676;23.320;2023-06-10T03:17:06;94292.34;;;18.25;100.00
38400;BME280;24180;42.676;23.320;2023-06-10T03:19:33;94301.41;;;18.23;100.00
38400;BME280;24180;42.676;23.320;2023-06-10T03:22:10;94316.34;;;18.36;100.00
38400;BME280;24180;42.676;23.320;2023-06-10T03:24:36;94327.84;;;18.35;100.00
38400;BME280;24180;42.676;23.320;2023-06-10T03:27:02;94329.47;;;18.29;100.00
38400;BME280;24180;42.676;23.320;2023-06-10T03:29:30;94353.25;;;18.41;100.00
38400;BME280;24180;42.676;23.320;2023-06-10T03:31:55;94323.78;;;18.19;100.00
38400;BME280;24180;42.676;23.320;2023-06-10T03:34:21;94339.53;;;18.32;100.00
38400;BME280;24180;42.676;23.320;2023-06-10T03:36:48;94353.44;;;18.39;100.00
38400;BME280;24180;42.676;23.320;2023-06-10T03:39:14;94353.44;;;18.39;100.00
38400;BME280;24180;42.676;23.320;2023-06-10T03:41:39;94347.22;;;18.40;100.00
38400;BME280;24180;42.676;23.320;2023-06-10T03:44:05;94324.00;;;18.31;100.00
38400;BME280;24180;42.676;23.320;2023-06-10T03:46:30;94359.31;;;18.48;100.00
38400;BME280;24180;42.676;23.320;2023-06-10T03:48:55;94350.63;;;18.34;100.00
38400;BME280;24180;42.676;23.320;2023-06-10T03:51:21;94347.81;;;18.36;100.00
38400;BME280;24180;42.676;23.320;2023-06-10T03:53:46;94344.78;;;18.32;100.00
38400;BME280;24180;42.676;23.320;2023-06-10T03:56:12;94316.94;;;18.18;100.00
38400;BME280;24180;42.676;23.320;2023-06-10T03:58:37;94309.06;;;18.18;100.00
38400;BME280;24180;42.676;23.320;2023-06-10T04:01:03;94318.94;;;18.22;100.00
38400;BME280;24180;42.676;23.320;2023-06-10T04:03:28;94318.97;;;18.29;100.00
38400;BME280;24180;42.676;23.320;2023-06-10T04:05:54;94340.34;;;18.39;100.00
38400;BME280;24180;42.676;23.320;2023-06-10T04:08:19;94344.78;;;18.45;100.00
38400;BME280;24180;42.676;23.320;2023-06-10T04:10:45;94332.88;;;18.36;100.00
38400;BME280;24180;42.676;23.320;2023-06-10T04:13:11;94343.16;;;18.31;100.00
38400;BME280;24180;42.676;23.320;2023-06-10T04:15:36;94341.16;;;18.33;100.00
38400;BME280;24180;42.676;23.320;2023-06-10T04:18:02;94329.47;;;18.29;100.00
38400;BME280;24180;42.676;23.320;2023-06-10T04:20:28;94331.47;;;18.27;100.00
38400;BME280;24180;42.676;23.320;2023-06-10T04:22:53;94360.31;;;18.40;100.00
38400;BME280;24180;42.676;23.320;2023-06-10T04:25:19;94349.22;;;18.45;100.00
38400;BME280;24180;42.676;23.320;2023-06-10T04:27:44;94325.81;;;18.30;100.00
38400;BME280;24180;42.676;23.320;2023-06-10T04:30:10;94322.59;;;18.28;100.00
38400;BME280;24180;42.676;23.320;2023-06-10T04:32:36;94358.31;;;18.55;100.00
38400;BME280;24180;42.676;23.320;2023-06-10T04:35:01;94356.13;;;18.52;100.00
38400;BME280;24180;42.676;23.320;2023-06-10T04:37:27;94351.63;;;18.46;100.00
38400;BME280;24180;42.676;23.320;2023-06-10T04:39:54;94343.59;;;18.54;100.00
38400;BME280;24180;42.676;23.320;2023-06-10T04:42:19;94348.66;;;18.69;100.00
38400;BME280;24180;42.676;23.320;2023-06-10T04:44:45;94348.44;;;18.70;100.00
38400;BME280;24180;42.676;23.320;2023-06-10T04:47:10;94327.44;;;18.70;100.00
38400;BME280;24180;42.676;23.320;2023-06-10T04:49:36;94348.81;;;18.94;100.00
38400;BME280;24180;42.676;23.320;2023-06-10T04:52:02;94354.25;;;18.99;100.00
38400;BME280;24180;42.676;23.320;2023-06-10T04:54:30;94337.50;;;19.00;100.00
38400;BME280;24180;42.676;23.320;2023-06-10T04:56:55;94338.72;;;19.04;100.00
38400;BME280;24180;42.676;23.320;2023-06-10T04:59:20;94346.56;;;19.10;100.00
38400;BME280;24180;42.676;23.320;2023-06-10T05:01:46;94292.91;;;18.87;100.00
38400;BME280;24180;42.676;23.320;2023-06-10T05:04:11;94301.78;;;18.99;100.00
38400;BME280;24180;42.676;23.320;2023-06-10T05:06:37;94320.31;;;19.10;100.00
38400;BME280;24180;42.676;23.320;2023-06-10T05:09:02;94330.41;;;19.20;100.00
38400;BME280;24180;42.676;23.320;2023-06-10T05:11:28;94329.38;;;19.14;100.00
38400;BME280;24180;42.676;23.320;2023-06-10T05:13:53;94351.16;;;19.35;100.00
38400;BME280;24180;42.676;23.320;2023-06-10T05:16:19;94342.69;;;19.33;100.00
38400;BME280;24180;42.676;23.320;2023-06-10T05:18:44;94312.88;;;18.94;100.00
38400;BME280;24180;42.676;23.320;2023-06-10T05:21:10;94348.00;;;19.13;100.00
38400;BME280;24180;42.676;23.320;2023-06-10T05:23:35;94311.84;;;19.02;100.00
38400;BME280;24180;42.676;23.320;2023-06-10T05:26:00;94323.72;;;19.24;100.00
38400;BME280;24180;42.676;23.320;2023-06-10T05:28:26;94322.25;;;19.35;100.00
38400;BME280;24180;42.676;23.320;2023-06-10T05:30:51;94355.34;;;19.55;100.00
38400;BME280;24180;42.676;23.320;2023-06-10T05:33:17;94322.50;;;19.33;100.00
38400;BME280;24180;42.676;23.320;2023-06-10T05:35:42;94305.34;;;19.24;100.00
38400;BME280;24180;42.676;23.320;2023-06-10T05:38:08;94324.13;;;19.28;100.00
38400;BME280;24180;42.676;23.320;2023-06-10T05:40:33;94337.44;;;19.33;100.00
38400;BME280;24180;42.676;23.320;2023-06-10T05:42:58;94360.03;;;19.47;100.00
38400;BME280;24180;42.676;23.320;2023-06-10T05:45:24;94342.03;;;19.50;100.00
38400;BME280;24180;42.676;23.320;2023-06-10T05:47:49;94353.66;;;19.74;100.00
38400;BME280;24180;42.676;23.320;2023-06-10T05:50:15;94334.47;;;19.74;100.00
38400;BME280;24180;42.676;23.320;2023-06-10T05:52:41;94319.53;;;19.68;100.00
38400;BME280;24180;42.676;23.320;2023-06-10T05:55:07;94336.06;;;19.75;100.00
38400;BME280;24180;42.676;23.320;2023-06-10T05:57:32;94321.97;;;19.69;100.00
38400;BME280;24180;42.676;23.320;2023-06-10T05:59:59;94356.75;;;20.02;100.00
38400;BME280;24180;42.676;23.320;2023-06-10T06:02:24;94352.97;;;19.92;100.00
38400;BME280;24180;42.676;23.320;2023-06-10T06:04:50;94377.56;;;20.04;100.00
38400;BME280;24180;42.676;23.320;2023-06-10T06:07:15;94375.50;;;20.13;100.00
38400;BME280;24180;42.676;23.320;2023-06-10T06:09:41;94369.88;;;20.02;100.00
38400;BME280;24180;42.676;23.320;2023-06-10T06:12:07;94352.72;;;20.00;100.00
38400;BME280;24180;42.676;23.320;2023-06-10T06:14:37;94350.03;;;20.13;100.00
38400;BME280;24180;42.676;23.320;2023-06-10T06:17:03;94372.59;;;20.59;100.00
38400;BME280;24180;42.676;23.320;2023-06-10T06:19:28;94374.59;;;20.88;100.00
38400;BME280;24180;42.676;23.320;2023-06-10T06:21:54;94377.13;;;21.01;100.00
38400;BME280;24180;42.676;23.320;2023-06-10T06:24:19;94352.16;;;21.03;100.00
38400;BME280;24180;42.676;23.320;2023-06-10T06:26:45;94357.72;;;21.20;100.00
38400;BME280;24180;42.676;23.320;2023-06-10T06:29:10;94358.69;;;21.26;100.00
38400;BME280;24180;42.676;23.320;2023-06-10T06:31:36;94383.03;;;21.39;100.00
38400;BME280;24180;42.676;23.320;2023-06-10T06:34:01;94376.00;;;21.15;100.00
38400;BME280;24180;42.676;23.320;2023-06-10T06:36:27;94391.66;;;21.03;100.00
38400;BME280;24180;42.676;23.320;2023-06-10T06:38:52;94367.75;;;20.55;100.00
38400;BME280;24180;42.676;23.320;2023-06-10T06:41:18;94383.63;;;20.42;100.00
38400;BME280;24180;42.676;23.320;2023-06-10T06:43:43;94387.31;;;20.35;100.00
38400;BME280;24180;42.676;23.320;2023-06-10T06:46:09;94362.44;;;20.37;100.00
38400;BME280;24180;42.676;23.320;2023-06-10T06:48:35;94374.84;;;20.55;100.00
38400;BME280;24180;42.676;23.320;2023-06-10T06:51:00;94373.94;;;20.68;100.00
38400;BME280;24180;42.676;23.320;2023-06-10T06:53:25;94348.00;;;20.71;100.00
38400;BME280;24180;42.676;23.320;2023-06-10T06:55:51;94344.88;;;21.06;100.00
38400;BME280;24180;42.676;23.320;2023-06-10T06:58:16;94329.13;;;21.24;100.00
38400;BME280;24180;42.676;23.320;2023-06-10T07:00:42;94347.19;;;21.20;100.00
38400;BME280;24180;42.676;23.320;2023-06-10T07:03:07;94374.56;;;21.37;100.00
38400;BME280;24180;42.676;23.320;2023-06-10T07:05:33;94349.28;;;21.12;100.00
38400;BME280;24180;42.676;23.320;2023-06-10T07:07:58;94375.56;;;21.55;100.00
38400;BME280;24180;42.676;23.320;2023-06-10T07:10:24;94358.59;;;21.51;100.00
38400;BME280;24180;42.676;23.320;2023-06-10T07:12:50;94342.28;;;21.60;100.00
38400;BME280;24180;42.676;23.320;2023-06-10T07:15:16;94366.66;;;21.37;100.00
38400;BME280;24180;42.676;23.320;2023-06-10T07:17:42;94365.34;;;21.65;100.00
38400;BME280;24180;42.676;23.320;2023-06-10T07:20:07;94341.22;;;21.79;100.00
38400;BME280;24180;42.676;23.320;2023-06-10T07:22:33;94363.88;;;21.69;100.00
38400;BME280;24180;42.676;23.320;2023-06-10T07:24:59;94352.63;;;21.62;100.00
38400;BME280;24180;42.676;23.320;2023-06-10T07:27:24;94364.09;;;21.67;100.00
38400;BME280;24180;42.676;23.320;2023-06-10T07:29:50;94362.03;;;22.06;100.00
38400;BME280;24180;42.676;23.320;2023-06-10T07:32:16;94366.06;;;22.20;100.00
38400;BME280;24180;42.676;23.320;2023-06-10T07:34:41;94358.84;;;22.57;100.00
38400;BME280;24180;42.676;23.320;2023-06-10T07:37:07;94349.84;;;22.88;100.00
38400;BME280;24180;42.676;23.320;2023-06-10T07:39:34;94358.72;;;22.52;100.00
38400;BME280;24180;42.676;23.320;2023-06-10T07:42:00;94334.19;;;22.10;100.00
38400;BME280;24180;42.676;23.320;2023-06-10T07:44:25;94369.03;;;22.12;100.00
38400;BME280;24180;42.676;23.320;2023-06-10T07:46:51;94345.50;;;21.62;100.00
38400;BME280;24180;42.676;23.320;2023-06-10T07:49:16;94367.28;;;21.87;100.00
38400;BME280;24180;42.676;23.320;2023-06-10T07:51:42;94340.50;;;21.90;100.00
38400;BME280;24180;42.676;23.320;2023-06-10T07:54:07;94356.13;;;22.22;100.00
38400;BME280;24180;42.676;23.320;2023-06-10T07:56:32;94337.88;;;22.20;100.00
38400;BME280;24180;42.676;23.320;2023-06-10T07:58:58;94356.66;;;22.42;100.00
38400;BME280;24180;42.676;23.320;2023-06-10T08:01:23;94343.88;;;22.39;100.00
38400;BME280;24180;42.676;23.320;2023-06-10T08:03:49;94326.72;;;22.60;100.00
38400;BME280;24180;42.676;23.320;2023-06-10T08:06:15;94361.91;;;22.83;100.00
38400;BME280;24180;42.676;23.320;2023-06-10T08:08:42;94361.56;;;22.80;100.00
38400;BME280;24180;42.676;23.320;2023-06-10T08:11:11;94334.47;;;22.84;100.00
38400;BME280;24180;42.676;23.320;2023-06-10T08:13:37;94353.53;;;22.98;100.00
38400;BME280;24180;42.676;23.320;2023-06-10T08:16:02;94332.16;;;22.76;100.00
38400;BME280;24180;42.676;23.320;2023-06-10T08:18:28;94326.16;;;22.58;100.00
38400;BME280;24180;42.676;23.320;2023-06-10T08:20:54;94327.78;;;22.59;100.00
38400;BME280;24180;42.676;23.320;2023-06-10T08:23:19;94346.06;;;22.95;100.00
38400;BME280;24180;42.676;23.320;2023-06-10T08:25:45;94322.19;;;23.02;100.00
38400;BME280;24180;42.676;23.320;2023-06-10T08:28:10;94303.25;;;22.93;100.00
38400;BME280;24180;42.676;23.320;2023-06-10T08:30:36;94331.63;;;23.09;100.00
38400;BME280;24180;42.676;23.320;2023-06-10T08:33:01;94338.16;;;23.07;100.00
38400;BME280;24180;42.676;23.320;2023-06-10T08:35:27;94322.88;;;22.97;100.00
38400;BME280;24180;42.676;23.320;2023-06-10T08:37:52;94313.69;;;23.00;100.00
38400;BME280;24180;42.676;23.320;2023-06-10T08:40:18;94330.31;;;23.35;100.00
38400;BME280;24180;42.676;23.320;2023-06-10T08:42:48;94323.75;;;23.61;100.00
38400;BME280;24180;42.676;23.320;2023-06-10T08:45:18;94298.13;;;23.61;100.00
38400;BME280;24180;42.676;23.320;2023-06-10T08:47:49;94318.78;;;24.04;100.00
38400;BME280;24180;42.676;23.320;2023-06-10T08:50:17;94324.63;;;24.18;100.00
38400;BME280;24180;42.676;23.320;2023-06-10T08:52:44;94298.53;;;23.82;100.00
38400;BME280;24180;42.676;23.320;2023-06-10T08:55:15;94302.19;;;23.81;100.00
38400;BME280;24180;42.676;23.320;2023-06-10T08:57:45;94305.31;;;24.06;100.00
38400;BME280;24180;42.676;23.320;2023-06-10T09:00:12;94322.06;;;24.23;100.00
38400;BME280;24180;42.676;23.320;2023-06-10T09:02:38;94315.88;;;24.17;100.00
38400;BME280;24180;42.676;23.320;2023-06-10T09:05:04;94286.09;;;23.54;100.00
38400;BME280;24180;42.676;23.320;2023-06-10T09:07:30;94284.25;;;23.31;100.00
38400;BME280;24180;42.676;23.320;2023-06-10T09:10:02;94284.00;;;23.56;100.00
38400;BME280;24180;42.676;23.320;2023-06-10T09:12:33;94301.53;;;24.02;100.00
38400;BME280;24180;42.676;23.320;2023-06-10T09:15:00;94277.56;;;24.08;100.00
38400;BME280;24180;42.676;23.320;2023-06-10T09:17:26;94297.88;;;24.31;100.00
38400;BME280;24180;42.676;23.320;2023-06-10T09:19:52;94293.88;;;24.62;100.00
38400;BME280;24180;42.676;23.320;2023-06-10T09:22:21;94270.25;;;24.77;96.57
38400;BME280;24180;42.676;23.320;2023-06-10T09:24:47;94299.94;;;25.12;97.66
38400;BME280;24180;42.676;23.320;2023-06-10T09:27:13;94282.41;;;25.28;93.89
38400;BME280;24180;42.676;23.320;2023-06-10T09:32:17;94291.59;;;25.59;98.53
38400;BME280;24180;42.676;23.320;2023-06-10T09:34:44;94266.72;;;25.43;95.83
38400;BME280;24180;42.676;23.320;2023-06-10T09:37:09;94274.44;;;25.67;94.27
38400;BME280;24180;42.676;23.320;2023-06-10T09:39:37;94284.09;;;25.56;98.05
38400;BME280;24180;42.676;23.320;2023-06-10T09:42:17;94284.81;;;25.30;97.67
38400;BME280;24180;42.676;23.320;2023-06-10T09:44:52;94272.72;;;25.17;100.00
38400;BME280;24180;42.676;23.320;2023-06-10T09:47:21;94278.00;;;24.95;98.33
38400;BME280;24180;42.676;23.320;2023-06-10T09:49:48;94252.28;;;24.96;97.83
38400;BME280;24180;42.676;23.320;2023-06-10T09:52:13;94274.00;;;25.53;97.96
38400;BME280;24180;42.676;23.320;2023-06-10T09:54:39;94273.19;;;25.74;94.97
38400;BME280;24180;42.676;23.320;2023-06-10T09:57:07;94261.94;;;25.89;95.23
38400;BME280;24180;42.676;23.320;2023-06-10T09:59:35;94254.03;;;26.21;89.19
38400;BME280;24180;42.676;23.320;2023-06-10T10:02:02;94259.63;;;26.51;86.77
38400;BME280;24180;42.676;23.320;2023-06-10T10:04:29;94258.13;;;26.65;83.27
38400;BME280;24180;42.676;23.320;2023-06-10T10:06:55;94248.44;;;26.49;81.75
38400;BME280;24180;42.676;23.320;2023-06-10T10:09:20;94262.41;;;26.66;79.21
38400;BME280;24180;42.676;23.320;2023-06-10T10:11:47;94269.09;;;26.74;75.44
38400;BME280;24180;42.676;23.320;2023-06-10T10:14:13;94238.28;;;26.36;73.70
38400;BME280;24180;42.676;23.320;2023-06-10T10:16:42;94231.53;;;26.23;75.05
38400;BME280;24180;42.676;23.320;2023-06-10T10:19:13;94247.91;;;25.93;84.23
38400;BME280;24180;42.676;23.320;2023-06-10T10:21:50;94224.44;;;25.53;88.82
38400;BME280;24180;42.676;23.320;2023-06-10T10:24:21;94259.78;;;25.86;87.94
38400;BME280;24180;42.676;23.320;2023-06-10T10:26:48;94247.59;;;27.74;74.90
38400;BME280;24180;42.676;23.320;2023-06-10T10:29:27;94235.16;;;29.96;63.16
38400;BME280;24180;42.676;23.320;2023-06-10T10:31:56;94224.63;;;32.57;48.70
38400;BME280;24180;42.676;23.320;2023-06-10T10:34:30;94228.75;;;31.51;54.58
38400;BME280;24180;42.676;23.320;2023-06-10T10:37:00;94218.03;;;30.02;61.51
38400;BME280;24180;42.676;23.320;2023-06-10T10:39:26;94231.13;;;29.39;65.79
38400;BME280;24180;42.676;23.320;2023-06-10T10:41:53;94236.78;;;30.70;58.60
38400;BME280;24180;42.676;23.320;2023-06-10T10:44:20;94227.22;;;33.54;48.57
38400;BME280;24180;42.676;23.320;2023-06-10T10:46:50;94235.31;;;36.33;37.75
38400;BME280;24180;42.676;23.320;2023-06-10T10:49:17;94225.06;;;37.25;34.48
38400;BME280;24180;42.676;23.320;2023-06-10T10:52:00;94213.72;;;37.40;35.15
38400;BME280;24180;42.676;23.320;2023-06-10T10:54:31;94201.06;;;37.99;32.25
38400;BME280;24180;42.676;23.320;2023-06-10T11:04:57;94184.69;;;34.55;38.13
38400;BME280;24180;42.676;23.320;2023-06-10T11:07:24;94219.72;;;33.92;38.66
38400;BME280;24180;42.676;23.320;2023-06-10T11:12:51;94191.69;;;34.34;35.54
38400;BME280;24180;42.676;23.320;2023-06-10T11:15:28;94180.97;;;34.20;35.34
38400;BME280;24180;42.676;23.320;2023-06-10T11:18:27;94192.50;;;32.71;39.18
38400;BME280;24180;42.676;23.320;2023-06-10T11:20:53;94192.63;;;32.47;42.54
38400;BME280;24180;42.676;23.320;2023-06-10T11:31:31;94166.38;;;33.36;42.25
38400;BME280;24180;42.676;23.320;2023-06-10T11:33:58;94186.53;;;32.09;46.87
38400;BME280;24180;42.676;23.320;2023-06-10T11:36:25;94163.06;;;30.92;50.13
38400;BME280;24180;42.676;23.320;2023-06-10T11:38:55;94159.63;;;30.29;54.38
38400;BME280;24180;42.676;23.320;2023-06-10T11:41:21;94161.13;;;29.57;57.83
38400;BME280;24180;42.676;23.320;2023-06-10T11:43:47;94185.91;;;29.68;61.90
38400;BME280;24180;42.676;23.320;2023-06-10T11:46:14;94167.50;;;29.66;61.20
38400;BME280;24180;42.676;23.320;2023-06-10T11:48:48;94175.00;;;29.64;63.05
38400;BME280;24180;42.676;23.320;2023-06-10T11:51:14;94172.19;;;29.36;60.71
38400;BME280;24180;42.676;23.320;2023-06-10T11:53:39;94167.94;;;29.24;63.27
38400;BME280;24180;42.676;23.320;2023-06-10T11:56:05;94170.50;;;30.04;61.30
38400;BME280;24180;42.676;23.320;2023-06-10T11:58:30;94154.00;;;31.97;50.38
38400;BME280;24180;42.676;23.320;2023-06-10T12:00:56;94173.72;;;34.96;39.13
38400;BME280;24180;42.676;23.320;2023-06-10T12:03:23;94163.88;;;37.67;32.85
38400;BME280;24180;42.676;23.320;2023-06-10T12:05:59;94144.50;;;35.60;34.29
38400;BME280;24180;42.676;23.320;2023-06-10T12:08:25;94156.31;;;33.69;37.84
38400;BME280;24180;42.676;23.320;2023-06-10T12:10:51;94162.34;;;32.79;41.77
38400;BME280;24180;42.676;23.320;2023-06-10T12:13:16;94160.88;;;32.54;40.92
38400;BME280;24180;42.676;23.320;2023-06-10T12:15:43;94160.44;;;31.96;42.35
38400;BME280;24180;42.676;23.320;2023-06-10T12:18:29;94165.28;;;31.75;44.38
38400;BME280;24180;42.676;23.320;2023-06-10T12:20:55;94140.69;;;31.54;45.80
38400;BME280;24180;42.676;23.320;2023-06-10T12:23:21;94152.09;;;31.41;46.72
38400;BME280;24180;42.676;23.320;2023-06-10T12:25:54;94152.25;;;31.26;40.94
38400;BME280;24180;42.676;23.320;2023-06-10T12:28:26;94157.00;;;30.82;40.44
38400;BME280;24180;42.676;23.320;2023-06-10T12:31:06;94131.16;;;30.14;41.01
38400;BME280;24180;42.676;23.320;2023-06-10T12:33:31;94148.06;;;30.05;42.64
38400;BME280;24180;42.676;23.320;2023-06-10T12:35:57;94146.88;;;29.77;41.67
38400;BME280;24180;42.676;23.320;2023-06-10T12:38:24;94133.56;;;29.28;41.13
38400;BME280;24180;42.676;23.320;2023-06-10T12:40:53;94122.97;;;29.08;41.91
38400;BME280;24180;42.676;23.320;2023-06-10T12:43:24;94143.31;;;28.73;41.36
38400;BME280;24180;42.676;23.320;2023-06-10T12:45:51;94120.94;;;28.64;42.64
38400;BME280;24180;42.676;23.320;2023-06-10T12:48:21;94115.84;;;28.88;41.61
38400;BME280;24180;42.676;23.320;2023-06-10T12:50:55;94137.13;;;28.98;41.40
38400;BME280;24180;42.676;23.320;2023-06-10T12:53:21;94128.84;;;29.05;39.94
38400;BME280;24180;42.676;23.320;2023-06-10T12:55:48;94145.34;;;29.02;42.39
38400;BME280;24180;42.676;23.320;2023-06-10T12:58:14;94154.50;;;28.75;41.47
38400;BME280;24180;42.676;23.320;2023-06-10T13:00:40;94140.16;;;28.36;39.67
38400;BME280;24180;42.676;23.320;2023-06-10T13:03:07;94144.16;;;28.08;40.71
38400;BME280;24180;42.676;23.320;2023-06-10T13:05:35;94119.38;;;27.77;41.73
38400;BME280;24180;42.676;23.320;2023-06-10T13:08:02;94148.13;;;27.75;43.17